ローマ/フィウミチーノ の空港の天気 - METARとTAF

ローマ・レオナルド・ダ・ビンチ国際空港 ( LIRF / FCO ) - イタリア ローマ
飛行場実況気象(Metar)
観測時間08/11 07:20 CEST (08/11 05:20 UTC)
風向・風速東北東 2m/s
視程1200m
天気現象散在した霧
全天の8割程度の雲 雲底高度 60m
気温22℃
湿度100%
気圧1015hPa
METARLIRF 110520Z 07004KT 1200 0300S R16L/P1500N R16R/P1500N R25/P1500N R34R/P1500N BCFG BKN002 22/22 Q1015 BECMG 600 FG BKN004
過去の天気等 Google飛行場航空写真 Wunderground天気予報

過去48時間のMETAR

飛行場予報(TAF)
発表時間: 8/11 07:00 CEST (8/11 05:00 UTC)
予報対象時間: 11日8時 CEST ~ 12日14時 CEST
風向・風速不定 3m/s
視程4000m
天気現象もや
全天の4割程度の雲 雲底高度 120m
11日8時 CEST ~ 11日10時 CEST に徐々に
視程10km以上
11日10時 CEST ~ 11日12時 CEST に徐々に
風向・風速西南西 6m/s
11日20時 CEST ~ 11日22時 CEST に徐々に
風向・風速不定 3m/s
12日2時 CEST ~ 12日8時 CEST に一時的に
視程1200m
天気現象散在した霧
12日10時 CEST ~ 12日12時 CEST に徐々に
風向・風速西 6m/s
TAF LIRF 110500Z 1106/1212 VRB05KT 4000 BR SCT004
BECMG 1106/1108 9999
BECMG 1108/1110 25012KT
BECMG 1118/1120 VRB05KT
TEMPO 1200/1206 1200 BCFG
BECMG 1208/1210 27012KT